Time;durP1;ratioP1;P1;durP2;ratioP2;P2;SDS_P1;SDS_P2;PMS_P1;PMS_P2;Temp;Humidity;BMP_temperature;BMP_pressure;BME280_temperature;BME280_humidity;BME280_pressure;Samples;Min_cycle;Max_cycle;Signal;HPM_P1;HPM_P2
2021/04/29 00:00:37;;;;;;;1999.90;999.90;;;15.00;20.20;;;;;;5066050;28;20193;-83
2021/04/29 00:03:03;;;;;;;1999.90;999.90;;;15.00;21.00;;;;;;5048206;28;20411;-83
2021/04/29 00:05:29;;;;;;;1999.90;999.90;;;15.00;19.50;;;;;;5066270;28;20189;-83
2021/04/29 00:07:55;;;;;;;1999.90;999.90;;;15.00;19.90;;;;;;5065787;28;20197;-83
2021/04/29 00:10:26;;;;;;;1999.90;999.90;;;15.00;19.50;;;;;;5066337;28;20185;-84
2021/04/29 00:12:52;;;;;;;1999.90;999.90;;;15.00;20.10;;;;;;5065945;28;20388;-83
2021/04/29 00:15:18;;;;;;;1999.90;999.90;;;14.90;28.40;;;;;;5046751;28;20456;-83
2021/04/29 00:17:45;;;;;;;1999.90;999.90;;;14.70;30.90;;;;;;5064966;28;20247;-83
2021/04/29 00:20:14;;;;;;;1999.90;999.90;;;14.70;31.20;;;;;;5046931;28;20419;-83
2021/04/29 00:22:40;;;;;;;1999.90;999.90;;;14.70;27.60;;;;;;5065944;28;20413;-84
2021/04/29 00:25:06;;;;;;;1999.90;999.90;;;14.80;26.40;;;;;;5065495;28;20450;-83
2021/04/29 00:27:32;;;;;;;1999.90;999.90;;;14.70;28.30;;;;;;5046643;28;20242;-83
2021/04/29 00:29:58;;;;;;;1999.90;999.90;;;14.70;32.00;;;;;;5063178;28;20821;-83
2021/04/29 00:32:23;;;;;;;1999.90;999.90;;;14.60;34.00;;;;;;5062879;28;20399;-83
2021/04/29 00:34:49;;;;;;;1999.90;999.90;;;14.50;39.30;;;;;;5063649;28;20169;-83
2021/04/29 00:37:15;;;;;;;1999.90;999.90;;;14.60;35.90;;;;;;5063560;28;20203;-83
2021/04/29 00:39:41;;;;;;;1999.90;999.90;;;14.60;40.70;;;;;;5063681;28;20169;-83
2021/04/29 00:42:07;;;;;;;1999.90;999.90;;;14.50;41.90;;;;;;5046113;28;20184;-83
2021/04/29 00:44:33;;;;;;;1999.90;999.90;;;14.50;42.40;;;;;;5063726;28;20191;-83
2021/04/29 00:47:00;;;;;;;1999.90;999.90;;;14.50;41.30;;;;;;5065023;28;20464;-83
2021/04/29 00:49:26;;;;;;;1999.90;999.90;;;14.50;42.20;;;;;;5047635;28;20172;-83
2021/04/29 00:51:52;;;;;;;1999.90;999.90;;;14.40;44.00;;;;;;5064868;28;20451;-84
2021/04/29 00:54:17;;;;;;;1999.90;999.90;;;14.40;47.30;;;;;;5064619;28;20407;-83
2021/04/29 00:56:43;;;;;;;1999.90;999.90;;;14.40;41.90;;;;;;5063892;28;20188;-83
2021/04/29 00:59:09;;;;;;;1999.90;999.90;;;14.30;44.20;;;;;;5064395;28;20226;-83
2021/04/29 01:01:36;;;;;;;1999.90;999.90;;;14.30;42.80;;;;;;5046133;28;20199;-83
2021/04/29 01:04:19;;;;;;;1999.90;999.90;;;14.30;42.90;;;;;;5064155;28;20631;-83
2021/04/29 01:06:54;;;;;;;1999.90;999.90;;;14.30;43.30;;;;;;5064145;28;20435;-83
2021/04/29 01:09:40;;;;;;;1999.90;999.90;;;14.30;44.80;;;;;;5063569;28;20407;-83
2021/04/29 01:12:32;;;;;;;1999.90;999.90;;;14.30;42.30;;;;;;5061025;28;20399;-83
2021/04/29 01:14:59;;;;;;;1999.90;999.90;;;14.30;41.00;;;;;;5032789;28;20415;-83
2021/04/29 01:17:25;;;;;;;1999.90;999.90;;;14.40;40.40;;;;;;5066516;28;20961;-84
2021/04/29 01:20:09;;;;;;;1999.90;999.90;;;14.40;37.60;;;;;;5065147;28;20430;-84
2021/04/29 01:22:41;;;;;;;1999.90;999.90;;;14.50;36.70;;;;;;5065497;28;20387;-84
2021/04/29 01:25:13;;;;;;;1999.90;999.90;;;14.50;37.80;;;;;;5047620;28;20445;-84
2021/04/29 01:27:49;;;;;;;1999.90;999.90;;;14.50;41.20;;;;;;5065747;28;20873;-83
2021/04/29 01:30:14;;;;;;;1999.90;999.90;;;14.40;48.10;;;;;;5065175;28;20438;-84
2021/04/29 01:32:41;;;;;;;1999.90;999.90;;;14.50;49.00;;;;;;5065207;28;20403;-84
2021/04/29 01:35:09;;;;;;;1999.90;999.90;;;14.50;51.60;;;;;;5064212;28;20211;-84
2021/04/29 01:37:37;;;;;;;1999.90;999.90;;;14.40;52.30;;;;;;5064996;28;20504;-84
2021/04/29 01:40:04;;;;;;;1999.90;999.90;;;14.40;55.00;;;;;;5047835;28;20751;-84
2021/04/29 01:42:34;;;;;;;1999.90;999.90;;;14.50;55.70;;;;;;5064594;28;20838;-84
2021/04/29 01:45:01;;;;;;;1999.90;999.90;;;14.50;55.60;;;;;;5051102;28;20536;-84
2021/04/29 01:47:27;;;;;;;1999.90;999.90;;;14.40;56.10;;;;;;5051822;28;20435;-84
2021/04/29 01:49:53;;;;;;;1999.90;999.90;;;14.60;53.60;;;;;;5069281;28;20398;-84
2021/04/29 01:52:19;;;;;;;1999.90;999.90;;;14.60;54.50;;;;;;5069149;28;20441;-84
2021/04/29 01:54:45;;;;;;;1999.90;999.90;;;14.50;58.90;;;;;;5068978;28;20407;-84
2021/04/29 01:57:11;;;;;;;1999.90;999.90;;;14.40;61.50;;;;;;5069277;28;20177;-84
2021/04/29 01:59:36;;;;;;;1999.90;999.90;;;14.30;63.50;;;;;;5069365;28;20407;-84
2021/04/29 02:02:02;;;;;;;1999.90;999.90;;;14.30;67.50;;;;;;5068544;28;20647;-84
2021/04/29 02:04:28;;;;;;;1999.90;999.90;;;14.20;69.20;;;;;;5068510;28;20169;-83
2021/04/29 02:06:53;;;;;;;1999.90;999.90;;;14.40;68.20;;;;;;5067524;28;20184;-84
2021/04/29 02:09:19;;;;;;;1999.90;999.90;;;14.30;70.30;;;;;;5067490;28;20208;-84
2021/04/29 02:11:58;;;;;;;1999.90;999.90;;;14.30;74.80;;;;;;5066578;28;20168;-84
2021/04/29 02:14:34;;;;;;;1999.90;999.90;;;14.30;74.60;;;;;;5067214;28;20160;-83
2021/04/29 02:17:05;;;;;;;1999.90;999.90;;;14.40;73.00;;;;;;5067143;28;20411;-83
2021/04/29 02:19:32;;;;;;;1999.90;999.90;;;14.40;77.00;;;;;;5049529;28;20461;-83
2021/04/29 02:21:58;;;;;;;1999.90;999.90;;;14.30;77.70;;;;;;5048744;28;20517;-83
2021/04/29 02:24:24;;;;;;;1999.90;999.90;;;14.20;82.70;;;;;;5047778;28;20408;-83
2021/04/29 02:26:50;;;;;;;1999.90;999.90;;;14.20;82.50;;;;;;5065354;28;20454;-84
2021/04/29 02:29:18;;;;;;;1999.90;999.90;;;14.20;85.50;;;;;;5048368;28;20412;-83
2021/04/29 02:31:44;;;;;;;1999.90;999.90;;;14.20;85.60;;;;;;5066206;28;20395;-83
2021/04/29 02:34:10;;;;;;;1999.90;999.90;;;14.10;86.90;;;;;;5066407;28;20781;-83
2021/04/29 02:36:36;;;;;;;1999.90;999.90;;;14.10;87.40;;;;;;5066214;28;20456;-83
2021/04/29 02:39:06;;;;;;;1999.90;999.90;;;14.20;85.30;;;;;;5048428;28;20411;-83
2021/04/29 02:41:33;;;;;;;1999.90;999.90;;;14.20;87.60;;;;;;5066427;28;20387;-83
2021/04/29 02:44:00;;;;;;;1999.90;999.90;;;14.20;86.60;;;;;;5066095;28;20395;-83
2021/04/29 02:46:26;;;;;;;1999.90;999.90;;;14.30;86.80;;;;;;5048958;28;20885;-83
2021/04/29 02:48:52;;;;;;;1999.90;999.90;;;14.30;83.40;;;;;;5065676;28;20400;-83
2021/04/29 02:51:18;;;;;;;1999.90;999.90;;;14.20;85.40;;;;;;5066353;28;20414;-82
2021/04/29 02:53:45;;;;;;;1999.90;999.90;;;14.20;90.40;;;;;;5066896;28;20157;-83
2021/04/29 02:56:11;;;;;;;1999.90;999.90;;;14.20;88.20;;;;;;5067428;28;20400;-83
2021/04/29 02:58:44;;;;;;;1999.90;999.90;;;14.20;90.60;;;;;;5067250;28;20423;-83
2021/04/29 03:01:11;;;;;;;1999.90;999.90;;;14.10;90.80;;;;;;5066881;28;20528;-83
2021/04/29 03:03:36;;;;;;;1999.90;999.90;;;14.10;90.80;;;;;;5066805;28;20399;-83
2021/04/29 03:06:03;;;;;;;1999.90;999.90;;;14.00;90.90;;;;;;5048383;28;20486;-83
2021/04/29 03:08:29;;;;;;;1999.90;999.90;;;14.00;91.40;;;;;;5049268;28;20199;-83
2021/04/29 03:10:55;;;;;;;1999.90;999.90;;;14.10;90.20;;;;;;5067156;28;20439;-83
2021/04/29 03:13:21;;;;;;;1999.90;999.90;;;14.10;90.20;;;;;;5067221;28;20399;-83
2021/04/29 03:15:46;;;;;;;1999.90;999.90;;;14.00;90.70;;;;;;5067266;28;20224;-83
2021/04/29 03:18:12;;;;;;;1999.90;999.90;;;13.90;92.20;;;;;;5067121;28;20529;-83
2021/04/29 03:20:39;;;;;;;1999.90;999.90;;;13.90;93.10;;;;;;5067760;28;20550;-83
2021/04/29 03:23:08;;;;;;;1999.90;999.90;;;13.80;94.40;;;;;;5048726;28;20442;-83
2021/04/29 03:25:37;;;;;;;1999.90;999.90;;;13.80;94.20;;;;;;5066825;28;20453;-83
2021/04/29 03:28:03;;;;;;;1999.90;999.90;;;13.80;94.10;;;;;;5047630;28;20797;-83
2021/04/29 03:30:30;;;;;;;1999.90;999.90;;;13.90;92.70;;;;;;5049086;28;20403;-83
2021/04/29 03:32:56;;;;;;;1999.90;999.90;;;13.90;93.40;;;;;;5066485;28;20425;-83
2021/04/29 03:35:21;;;;;;;1999.90;999.90;;;13.90;92.90;;;;;;5066201;28;20402;-83
2021/04/29 03:37:47;;;;;;;1999.90;999.90;;;14.00;93.20;;;;;;5066983;28;20193;-83
2021/04/29 03:40:13;;;;;;;1999.90;999.90;;;13.90;94.20;;;;;;5066780;28;20172;-83
2021/04/29 03:42:39;;;;;;;1999.90;999.90;;;13.80;95.20;;;;;;5065624;28;20429;-83
2021/04/29 03:45:06;;;;;;;1999.90;999.90;;;13.70;96.70;;;;;;5064726;28;20470;-82
2021/04/29 03:47:32;;;;;;;1999.90;999.90;;;13.60;96.50;;;;;;5047759;28;20181;-82
2021/04/29 03:49:58;;;;;;;1999.90;999.90;;;13.60;96.70;;;;;;5065357;28;20406;-82
2021/04/29 03:52:23;;;;;;;1999.90;999.90;;;13.70;96.20;;;;;;5065193;28;20402;-82
2021/04/29 03:54:49;;;;;;;1999.90;999.90;;;13.70;96.00;;;;;;5064709;28;20396;-82
2021/04/29 03:57:15;;;;;;;1999.90;999.90;;;13.70;96.10;;;;;;5047188;28;20188;-82
2021/04/29 03:59:40;;;;;;;1999.90;999.90;;;13.60;97.10;;;;;;5064681;28;20195;-82
2021/04/29 04:02:06;;;;;;;1999.90;999.90;;;13.60;97.30;;;;;;5064235;28;20223;-82
2021/04/29 04:04:32;;;;;;;1999.90;999.90;;;13.60;97.80;;;;;;5064057;28;20164;-82
2021/04/29 04:06:57;;;;;;;1999.90;999.90;;;13.60;98.10;;;;;;5063040;28;20271;-82
2021/04/29 04:09:26;;;;;;;1999.90;999.90;;;13.60;98.40;;;;;;5064119;28;20191;-82
2021/04/29 04:11:51;;;;;;;1999.90;999.90;;;13.50;99.20;;;;;;5063638;28;20160;-83
2021/04/29 04:14:17;;;;;;;1999.90;999.90;;;13.60;98.70;;;;;;5063994;28;20764;-82
2021/04/29 04:16:43;;;;;;;1999.90;999.90;;;13.60;99.30;;;;;;5062763;28;20687;-83
2021/04/29 04:19:08;;;;;;;1999.90;999.90;;;13.70;98.70;;;;;;5046730;28;20180;-83
2021/04/29 04:21:34;;;;;;;1999.90;999.90;;;13.50;98.60;;;;;;5046518;28;20234;-82
2021/04/29 04:24:00;;;;;;;1999.90;999.90;;;13.50;99.50;;;;;;5064793;28;20223;-83
2021/04/29 04:26:26;;;;;;;1999.90;999.90;;;13.50;98.90;;;;;;5065183;28;20193;-83
2021/04/29 04:28:51;;;;;;;1999.90;999.90;;;13.60;98.50;;;;;;5064885;28;20156;-83
2021/04/29 04:31:17;;;;;;;1999.90;999.90;;;13.40;99.80;;;;;;5064749;28;20161;-83
2021/04/29 04:33:42;;;;;;;1999.90;999.90;;;13.30;99.90;;;;;;5067624;28;20187;-83
2021/04/29 04:36:08;;;;;;;1999.90;999.90;;;13.30;99.90;;;;;;5048875;28;20164;-83
2021/04/29 04:38:35;;;;;;;1999.90;999.90;;;13.30;99.90;;;;;;5066842;28;20260;-83
2021/04/29 04:41:01;;;;;;;1999.90;999.90;;;13.30;99.90;;;;;;5066252;28;20164;-83
2021/04/29 04:43:27;;;;;;;1999.90;999.90;;;13.40;99.60;;;;;;5066818;28;20414;-83
2021/04/29 04:45:52;;;;;;;1999.90;999.90;;;13.30;99.90;;;;;;5066317;28;20972;-83
2021/04/29 04:48:18;;;;;;;1999.90;999.90;;;13.10;99.90;;;;;;5048832;28;20188;-83
2021/04/29 04:50:47;;;;;;;1999.90;999.90;;;13.20;99.90;;;;;;5065861;28;20224;-83
2021/04/29 04:53:13;;;;;;;1999.90;999.90;;;13.20;99.90;;;;;;5066541;28;20533;-84
2021/04/29 04:55:45;;;;;;;1999.90;999.90;;;13.20;99.90;;;;;;5048420;28;20411;-83
2021/04/29 04:58:15;;;;;;;1999.90;999.90;;;13.20;99.90;;;;;;5066650;28;20430;-83
2021/04/29 05:00:44;;;;;;;1999.90;999.90;;;13.10;99.90;;;;;;5066282;28;20775;-83
2021/04/29 05:03:13;;;;;;;1999.90;999.90;;;13.10;99.90;;;;;;5066225;28;20410;-83
2021/04/29 05:05:48;;;;;;;1999.90;999.90;;;13.00;99.90;;;;;;5065398;28;20439;-83
2021/04/29 05:08:14;;;;;;;1999.90;999.90;;;13.00;99.90;;;;;;5048991;28;20438;-83
2021/04/29 05:10:40;;;;;;;1999.90;999.90;;;13.00;99.90;;;;;;5066222;28;20414;-83
2021/04/29 05:13:06;;;;;;;1999.90;999.90;;;13.00;99.90;;;;;;5066257;28;20418;-83
2021/04/29 05:15:33;;;;;;;1999.90;999.90;;;13.10;99.90;;;;;;5048886;28;20183;-83
2021/04/29 05:17:59;;;;;;;1999.90;999.90;;;13.10;99.90;;;;;;5069970;28;20445;-83
2021/04/29 05:20:26;;;;;;;1999.90;999.90;;;13.20;99.90;;;;;;5072970;28;20403;-83
2021/04/29 05:22:51;;;;;;;1999.90;999.90;;;13.20;99.90;;;;;;5072113;28;20160;-83
2021/04/29 05:25:18;;;;;;;1999.90;999.90;;;13.20;99.90;;;;;;5072067;28;20442;-82
2021/04/29 05:27:44;;;;;;;1999.90;999.90;;;13.10;99.90;;;;;;5071171;28;20263;-83
2021/04/29 05:30:10;;;;;;;1999.90;999.90;;;13.10;99.90;;;;;;5071420;28;20405;-82
2021/04/29 05:32:36;;;;;;;1999.90;999.90;;;13.20;99.90;;;;;;5071023;28;20403;-82
2021/04/29 05:35:03;;;;;;;1999.90;999.90;;;13.10;99.90;;;;;;5052159;28;20407;-82
2021/04/29 05:37:29;;;;;;;1999.90;999.90;;;13.10;99.90;;;;;;5052426;28;20210;-82
2021/04/29 05:39:54;;;;;;;1999.90;999.90;;;13.10;99.90;;;;;;5069474;28;20399;-82
2021/04/29 05:42:20;;;;;;;1999.90;999.90;;;13.10;99.90;;;;;;5070284;28;20563;-82
2021/04/29 05:44:46;;;;;;;1999.90;999.90;;;13.10;99.90;;;;;;5070264;28;20165;-82
2021/04/29 05:47:12;;;;;;;1999.90;999.90;;;13.20;99.90;;;;;;5071123;28;20180;-82
2021/04/29 05:49:40;;;;;;;1999.90;999.90;;;13.20;99.90;;;;;;5052849;28;20191;-82
2021/04/29 05:52:06;;;;;;;1999.90;999.90;;;13.30;99.90;;;;;;5069139;28;20401;-82
2021/04/29 05:54:33;;;;;;;1999.90;999.90;;;13.20;99.90;;;;;;5069029;28;20427;-82
2021/04/29 05:56:59;;;;;;;1999.90;999.90;;;13.20;99.90;;;;;;5066166;28;20176;-82
2021/04/29 05:59:25;;;;;;;1999.90;999.90;;;13.20;99.90;;;;;;5068748;28;20434;-82
2021/04/29 06:01:50;;;;;;;1999.90;999.90;;;13.30;99.90;;;;;;5069589;28;20164;-82
2021/04/29 06:04:17;;;;;;;1999.90;999.90;;;13.30;99.90;;;;;;5051583;28;20165;-83
2021/04/29 06:06:45;;;;;;;1999.90;999.90;;;13.10;99.90;;;;;;5067133;28;20200;-82
2021/04/29 06:09:10;;;;;;;1999.90;999.90;;;13.20;99.90;;;;;;5069639;28;20407;-83
2021/04/29 06:11:36;;;;;;;1999.90;999.90;;;13.20;99.90;;;;;;5071644;28;20642;-81
2021/04/29 06:14:03;;;;;;;1999.90;999.90;;;13.20;99.90;;;;;;5071844;28;20141;-82
2021/04/29 06:16:28;;;;;;;1999.90;999.90;;;13.20;99.90;;;;;;5053093;28;20416;-82
2021/04/29 06:18:54;;;;;;;1999.90;999.90;;;13.20;99.90;;;;;;5069874;28;20160;-82
2021/04/29 06:21:22;;;;;;;1999.90;999.90;;;13.20;99.90;;;;;;5052369;28;20299;-83
2021/04/29 06:23:48;;;;;;;1999.90;999.90;;;13.10;99.90;;;;;;5053484;28;20175;-83
2021/04/29 06:26:14;;;;;;;1999.90;999.90;;;13.10;99.90;;;;;;5052313;28;20871;-82
2021/04/29 06:28:39;;;;;;;1999.90;999.90;;;13.20;99.90;;;;;;5052622;28;20258;-83
2021/04/29 06:31:08;;;;;;;1999.90;999.90;;;13.00;99.90;;;;;;5045988;28;20168;-81
2021/04/29 06:33:34;;;;;;;1999.90;999.90;;;13.00;99.90;;;;;;5044152;28;20169;-82
2021/04/29 06:35:59;;;;;;;1999.90;999.90;;;13.00;99.90;;;;;;5060656;28;20407;-82
2021/04/29 06:38:25;;;;;;;1999.90;999.90;;;13.10;99.90;;;;;;5042675;28;20423;-81
2021/04/29 06:40:51;;;;;;;1999.90;999.90;;;13.20;99.90;;;;;;5042727;28;20278;-82
2021/04/29 06:43:17;;;;;;;1999.90;999.90;;;13.20;99.90;;;;;;5060104;28;20399;-82
2021/04/29 06:45:45;;;;;;;1999.90;999.90;;;13.20;99.90;;;;;;5041645;28;20725;-81
2021/04/29 06:48:16;;;;;;;1999.90;999.90;;;13.30;99.90;;;;;;5074259;22;20717;-82
2021/04/29 06:50:42;;;;;;;1999.90;999.90;;;13.40;99.90;;;;;;5040760;28;20192;-81
2021/04/29 06:53:08;;;;;;;1999.90;999.90;;;13.40;99.90;;;;;;5057520;28;20161;-82
2021/04/29 06:55:34;;;;;;;1999.90;999.90;;;13.40;99.90;;;;;;5063885;28;20403;-84
2021/04/29 06:58:10;;;;;;;1999.90;999.90;;;13.40;99.90;;;;;;5046907;28;20434;-83
2021/04/29 07:00:37;;;;;;;1999.90;999.90;;;13.50;99.90;;;;;;5044847;28;20168;-83
2021/04/29 07:03:03;;;;;;;1999.90;999.90;;;13.50;99.90;;;;;;5044702;28;20490;-83
2021/04/29 07:05:38;;;;;;;1999.90;999.90;;;13.70;99.90;;;;;;5062452;28;20880;-83
2021/04/29 07:08:04;;;;;;;1999.90;999.90;;;13.70;99.90;;;;;;5039528;28;20568;-83
2021/04/29 07:10:29;;;;;;;1999.90;999.90;;;13.90;99.90;;;;;;5057647;28;20380;-81
2021/04/29 07:12:55;;;;;;;1999.90;999.90;;;13.90;99.90;;;;;;5057339;28;20957;-81
2021/04/29 07:15:21;;;;;;;1999.90;999.90;;;14.00;99.90;;;;;;5040070;28;20179;-82
2021/04/29 07:17:47;;;;;;;1999.90;999.90;;;13.90;99.90;;;;;;5039538;28;20271;-82
2021/04/29 07:20:13;;;;;;;1999.90;999.90;;;13.90;99.90;;;;;;5057786;28;20723;-83
2021/04/29 07:22:45;;;;;;;1999.90;999.90;;;14.00;99.90;;;;;;5056832;28;20437;-82
2021/04/29 07:25:11;;;;;;;1999.90;999.90;;;14.00;99.90;;;;;;5039000;28;20977;-82
2021/04/29 07:27:37;;;;;;;1999.90;999.90;;;14.00;99.90;;;;;;5039345;28;20434;-82
2021/04/29 07:30:03;;;;;;;1999.90;999.90;;;14.00;99.90;;;;;;5057215;28;20166;-81
2021/04/29 07:32:32;;;;;;;1999.90;999.90;;;14.10;99.90;;;;;;5057362;28;20172;-81
2021/04/29 07:34:59;;;;;;;1999.90;999.90;;;14.20;99.90;;;;;;5039367;28;20415;-81
2021/04/29 07:37:24;;;;;;;1999.90;999.90;;;14.10;99.90;;;;;;5056781;28;20427;-81
2021/04/29 07:39:50;;;;;;;1999.90;999.90;;;14.10;97.20;;;;;;5057753;28;20429;-82
2021/04/29 07:42:16;;;;;;;1999.90;999.90;;;14.00;97.50;;;;;;5038942;28;20174;-81
2021/04/29 07:44:41;;;;;;;1999.90;999.90;;;14.00;96.30;;;;;;5041009;28;20169;-82
2021/04/29 07:47:07;;;;;;;1999.90;999.90;;;14.00;95.70;;;;;;5065967;28;20271;-82
2021/04/29 07:49:33;;;;;;;1999.90;999.90;;;14.10;96.20;;;;;;5043647;28;20164;-83
2021/04/29 07:51:58;;;;;;;1999.90;999.90;;;14.20;95.50;;;;;;5059876;28;20160;-81
2021/04/29 07:54:35;;;;;;;1999.90;999.90;;;14.20;95.30;;;;;;5058718;28;20210;-82
2021/04/29 07:57:01;;;;;;;1999.90;999.90;;;14.20;95.80;;;;;;5058075;28;20172;-81
2021/04/29 07:59:29;;;;;;;1999.90;999.90;;;14.20;94.30;;;;;;5058447;28;20371;-82
2021/04/29 08:01:56;;;;;;;1999.90;999.90;;;14.20;95.00;;;;;;5040979;28;20486;-82
2021/04/29 08:04:21;;;;;;;1999.90;999.90;;;14.20;94.40;;;;;;5057419;28;20399;-81
2021/04/29 08:06:47;;;;;;;1999.90;999.90;;;14.20;94.10;;;;;;5038064;28;20461;-82
2021/04/29 08:09:13;;;;;;;1999.90;999.90;;;14.00;92.30;;;;;;5057423;28;20567;-83
2021/04/29 08:11:38;;;;;;;1999.90;999.90;;;13.90;93.20;;;;;;5044179;28;20176;-83
2021/04/29 08:14:04;;;;;;;1999.90;999.90;;;14.00;94.50;;;;;;5045629;28;20153;-83
2021/04/29 08:16:30;;;;;;;1999.90;999.90;;;14.00;93.80;;;;;;5064972;28;20141;-83
2021/04/29 08:18:58;;;;;;;1999.90;999.90;;;13.90;93.10;;;;;;5065984;28;20198;-83
2021/04/29 08:21:24;;;;;;;1999.90;999.90;;;13.80;94.00;;;;;;5049293;28;20165;-84
2021/04/29 08:23:50;;;;;;;1999.90;999.90;;;13.80;95.10;;;;;;5066374;28;20487;-83
2021/04/29 08:26:16;;;;;;;1999.90;999.90;;;13.80;92.80;;;;;;5064662;28;20443;-83
2021/04/29 08:28:41;;;;;;;1999.90;999.90;;;13.80;90.40;;;;;;5065185;28;20272;-82
2021/04/29 08:31:07;;;;;;;1999.90;999.90;;;13.90;85.00;;;;;;5063084;28;20161;-82
2021/04/29 08:33:33;;;;;;;1999.90;999.90;;;13.90;76.20;;;;;;5046980;28;20431;-84
2021/04/29 08:36:02;;;;;;;1999.90;999.90;;;14.00;71.70;;;;;;5063347;28;20395;-82
2021/04/29 08:38:28;;;;;;;1999.90;999.90;;;14.00;71.40;;;;;;5064005;28;20507;-82
2021/04/29 08:40:54;;;;;;;1999.90;999.90;;;14.10;74.10;;;;;;5045522;28;20450;-83
2021/04/29 08:43:20;;;;;;;1999.90;999.90;;;14.10;65.10;;;;;;5063597;28;20663;-82
2021/04/29 08:45:46;;;;;;;1999.90;999.90;;;14.20;67.40;;;;;;5063184;28;20192;-82
2021/04/29 08:48:20;;;;;;;1999.90;999.90;;;14.30;68.90;;;;;;5062991;28;20431;-82
2021/04/29 08:50:46;;;;;;;1999.90;999.90;;;14.40;66.80;;;;;;5063457;28;20391;-82
2021/04/29 08:53:11;;;;;;;1999.90;999.90;;;14.50;69.80;;;;;;5061901;28;20409;-82
2021/04/29 08:55:37;;;;;;;1999.90;999.90;;;14.50;67.00;;;;;;5045568;28;20172;-83
2021/04/29 08:58:04;;;;;;;1999.90;999.90;;;14.50;68.90;;;;;;5061745;28;20263;-84
2021/04/29 09:00:30;;;;;;;1999.90;999.90;;;14.60;66.40;;;;;;5062918;28;20176;-82
2021/04/29 09:02:57;;;;;;;1999.90;999.90;;;14.70;64.20;;;;;;5057199;28;20399;-81
2021/04/29 09:05:32;;;;;;;1999.90;999.90;;;14.80;63.20;;;;;;5057207;28;20953;-82
2021/04/29 09:08:02;;;;;;;1999.90;999.90;;;14.90;58.20;;;;;;5059511;28;20434;-82
2021/04/29 09:10:38;;;;;;;1999.90;999.90;;;15.20;55.80;;;;;;5058266;28;20435;-82
2021/04/29 09:13:19;;;;;;;1999.90;999.90;;;15.20;47.00;;;;;;5057883;28;20387;-80
2021/04/29 09:15:46;;;;;;;1999.90;999.90;;;15.10;45.40;;;;;;5057913;28;20920;-80
2021/04/29 09:18:21;;;;;;;1999.90;999.90;;;15.20;48.30;;;;;;5058613;28;20829;-81
2021/04/29 09:21:06;;;;;;;1999.90;999.90;;;15.30;45.70;;;;;;5060875;28;20391;-82
2021/04/29 09:23:34;;;;;;;1999.90;999.90;;;15.40;45.90;;;;;;5046956;28;20410;-82
2021/04/29 09:26:06;;;;;;;1999.90;999.90;;;15.40;41.30;;;;;;5062244;28;21087;-82
2021/04/29 09:28:36;;;;;;;1999.90;999.90;;;15.30;47.00;;;;;;5062015;28;20790;-82
2021/04/29 09:31:03;;;;;;;1999.90;999.90;;;15.40;50.10;;;;;;5060812;28;20997;-82
2021/04/29 09:33:34;;;;;;;1999.90;999.90;;;15.30;47.80;;;;;;5060416;28;20399;-81
2021/04/29 09:36:06;;;;;;;1999.90;999.90;;;15.30;44.90;;;;;;5065067;28;20403;-82
2021/04/29 09:38:39;;;;;;;1999.90;999.90;;;15.20;45.70;;;;;;5058405;28;20997;-82
2021/04/29 09:41:07;;;;;;;1999.90;999.90;;;15.10;46.00;;;;;;5040216;28;20423;-82
2021/04/29 09:43:34;;;;;;;1999.90;999.90;;;15.00;49.40;;;;;;5039328;28;20412;-81
2021/04/29 09:46:03;;;;;;;1999.90;999.90;;;15.10;51.50;;;;;;5038814;28;20515;-80
2021/04/29 09:48:39;;;;;;;1999.90;999.90;;;15.20;52.50;;;;;;5056761;28;20438;-83
2021/04/29 09:51:07;;;;;;;1999.90;999.90;;;15.30;46.00;;;;;;5057055;28;20415;-81
2021/04/29 09:53:47;;;;;;;1999.90;999.90;;;15.30;40.70;;;;;;5056634;28;20410;-81
2021/04/29 09:56:13;;;;;;;1999.90;999.90;;;15.30;39.10;;;;;;5040509;28;20545;-81
2021/04/29 09:58:46;;;;;;;1999.90;999.90;;;15.40;41.70;;;;;;5039764;28;20442;-82
2021/04/29 10:01:12;;;;;;;1999.90;999.90;;;15.50;41.70;;;;;;5039244;28;20419;-82
2021/04/29 10:03:40;;;;;;;1999.90;999.90;;;15.70;41.20;;;;;;5057733;28;20436;-81
2021/04/29 10:06:09;;;;;;;1999.90;999.90;;;16.00;36.30;;;;;;5060471;28;20469;-80
2021/04/29 10:08:35;;;;;;;1999.90;999.90;;;16.30;30.40;;;;;;5062381;28;20422;-83
2021/04/29 10:11:03;;;;;;;1999.90;999.90;;;16.60;27.00;;;;;;5073933;22;20490;-78
2021/04/29 10:13:36;;;;;;;1999.90;999.90;;;16.60;23.80;;;;;;5058872;28;20171;-78
2021/04/29 10:16:02;;;;;;;1999.90;999.90;;;16.40;22.50;;;;;;5041546;28;20398;-79
2021/04/29 10:18:28;;;;;;;1999.90;999.90;;;16.40;20.00;;;;;;5041527;28;20428;-78
2021/04/29 10:20:57;;;;;;;1999.90;999.90;;;16.20;19.40;;;;;;5059523;28;20232;-78
2021/04/29 10:23:23;;;;;;;1999.90;999.90;;;16.10;20.70;;;;;;5060317;28;20411;-78
2021/04/29 10:25:54;;;;;;;1999.90;999.90;;;16.10;18.80;;;;;;5060571;28;20505;-79
2021/04/29 10:28:38;;;;;;;1999.90;999.90;;;16.00;19.00;;;;;;5042326;28;20842;-79
2021/04/29 10:31:36;;;;;;;1999.90;999.90;;;16.00;14.30;;;;;;5060258;28;20396;-79
2021/04/29 10:34:04;;;;;;;1999.90;999.90;;;15.80;19.30;;;;;;5016424;28;20774;-79
2021/04/29 10:36:43;;;;;;;1999.90;999.90;;;16.00;24.80;;;;;;5059970;28;20420;-79
2021/04/29 10:39:24;;;;;;;1999.90;999.90;;;16.40;29.50;;;;;;5060318;28;20419;-78
2021/04/29 10:42:05;;;;;;;1999.90;999.90;;;16.70;28.10;;;;;;5061791;28;20480;-79
2021/04/29 10:44:40;;;;;;;1999.90;999.90;;;17.00;23.30;;;;;;5061102;28;20423;-79
2021/04/29 10:47:06;;;;;;;1999.90;999.90;;;17.20;24.70;;;;;;5060099;28;20421;-79
2021/04/29 10:49:34;;;;;;;1999.90;999.90;;;17.30;21.90;;;;;;5060217;28;20444;-79
2021/04/29 10:52:01;;;;;;;1999.90;999.90;;;17.00;21.40;;;;;;5042608;28;20226;-79
2021/04/29 10:54:27;;;;;;;1999.90;999.90;;;16.40;28.60;;;;;;5060468;28;20451;-78
2021/04/29 10:57:11;;;;;;;1999.90;999.90;;;15.80;53.40;;;;;;5059980;28;20477;-80
2021/04/29 10:59:40;;;;;;;1999.90;999.90;;;15.60;78.70;;;;;;5043145;28;20419;-80
2021/04/29 11:02:06;;;;;;;1999.90;999.90;;;15.00;84.90;;;;;;5043237;28;20392;-82
2021/04/29 11:04:41;;;;;;;1999.90;999.90;;;14.60;89.10;;;;;;5060522;28;20474;-81
2021/04/29 11:07:11;;;;;;;1999.90;999.90;;;14.30;90.60;;;;;;5060790;28;20560;-80
2021/04/29 11:09:38;;;;;;;1999.90;999.90;;;13.90;81.20;;;;;;5060531;28;20411;-80
2021/04/29 11:12:09;;;;;;;1999.90;999.90;;;13.70;84.90;;;;;;5060319;28;20407;-79
2021/04/29 11:14:42;;;;;;;1999.90;999.90;;;13.70;87.40;;;;;;5060522;28;20782;-80
2021/04/29 11:17:22;;;;;;;1999.90;999.90;;;13.80;93.20;;;;;;5043100;28;20431;-80
2021/04/29 11:19:54;;;;;;;1999.90;999.90;;;14.10;94.80;;;;;;5060475;28;20390;-79
2021/04/29 11:22:26;;;;;;;1999.90;999.90;;;14.40;91.60;;;;;;5060508;28;20415;-80
2021/04/29 11:24:53;;;;;;;1999.90;999.90;;;14.40;89.60;;;;;;5060222;28;20467;-80
2021/04/29 11:27:26;;;;;;;1999.90;999.90;;;14.50;88.60;;;;;;5060183;28;20519;-80
2021/04/29 11:30:03;;;;;;;1999.90;999.90;;;14.70;82.70;;;;;;5060105;28;20409;-81
2021/04/29 11:32:32;;;;;;;1999.90;999.90;;;14.80;73.40;;;;;;5042054;28;20391;-80
2021/04/29 11:34:59;;;;;;;1999.90;999.90;;;14.90;74.60;;;;;;5060020;28;20399;-80
2021/04/29 11:37:25;;;;;;;1999.90;999.90;;;15.20;69.40;;;;;;5042416;28;20523;-80
2021/04/29 11:40:00;;;;;;;1999.90;999.90;;;15.50;56.50;;;;;;5059782;28;20406;-81
2021/04/29 11:42:33;;;;;;;1999.90;999.90;;;15.30;42.10;;;;;;5060037;28;20402;-80
2021/04/29 11:45:14;;;;;;;1999.90;999.90;;;15.40;50.80;;;;;;5041056;28;20452;-81
2021/04/29 11:47:52;;;;;;;1999.90;999.90;;;15.30;45.40;;;;;;5059677;28;20425;-81
2021/04/29 11:50:38;;;;;;;1999.90;999.90;;;15.40;49.80;;;;;;5059443;28;20720;-80
2021/04/29 11:53:15;;;;;;;1999.90;999.90;;;15.50;47.00;;;;;;5041266;28;20395;-80
2021/04/29 11:55:43;;;;;;;1999.90;999.90;;;15.60;45.00;;;;;;5059297;28;20383;-80
2021/04/29 11:58:11;;;;;;;1999.90;999.90;;;15.70;43.90;;;;;;5059070;28;20427;-80
2021/04/29 12:00:42;;;;;;;1999.90;999.90;;;16.10;45.50;;;;;;5041205;28;20431;-80
2021/04/29 12:03:10;;;;;;;1999.90;999.90;;;16.10;36.30;;;;;;5059277;28;20821;-80